Time;durP1;ratioP1;P1;durP2;ratioP2;P2;SDS_P1;SDS_P2;PMS_P1;PMS_P2;Temp;Humidity;BMP_temperature;BMP_pressure;BME280_temperature;BME280_humidity;BME280_pressure;Samples;Min_cycle;Max_cycle;Signal;HPM_P1;HPM_P2
2023/03/07 00:00:40;;;;;;;25.67;12.40;;;5.20;75.40;;;;;;9176125;19;20014;-64
2023/03/07 00:03:46;;;;;;;25.73;11.93;;;5.20;75.50;;;;;;9176500;19;20021;-65
2023/03/07 00:06:50;;;;;;;23.80;13.13;;;5.20;75.50;;;;;;9175364;19;20007;-64
2023/03/07 00:09:58;;;;;;;26.13;11.93;;;5.30;75.60;;;;;;9172644;19;20010;-64
2023/03/07 00:13:02;;;;;;;23.08;11.70;;;5.30;75.70;;;;;;9176912;19;20455;-64
2023/03/07 00:16:11;;;;;;;20.95;11.00;;;5.40;75.70;;;;;;9176521;19;20033;-64
2023/03/07 00:19:17;;;;;;;22.73;10.32;;;5.40;75.70;;;;;;9171396;19;20025;-65
2023/03/07 00:22:23;;;;;;;17.67;9.52;;;5.40;75.70;;;;;;9174070;19;20006;-64
2023/03/07 00:25:29;;;;;;;19.80;9.98;;;5.40;75.70;;;;;;9175737;19;20041;-64
2023/03/07 00:28:35;;;;;;;20.67;10.45;;;5.50;75.80;;;;;;9172470;19;20014;-64
2023/03/07 00:31:39;;;;;;;17.83;10.02;;;5.50;75.80;;;;;;9173748;19;20015;-64
2023/03/07 00:34:46;;;;;;;16.88;9.23;;;5.50;75.90;;;;;;9177744;19;20015;-64
2023/03/07 00:37:49;;;;;;;17.77;9.68;;;5.50;75.90;;;;;;9181861;19;20034;-64
2023/03/07 00:41:05;;;;;;;17.33;9.00;;;5.60;76.00;;;;;;9181020;19;20341;-64
2023/03/07 00:44:09;;;;;;;13.50;8.10;;;5.50;76.10;;;;;;9183038;19;20689;-64
2023/03/07 00:47:15;;;;;;;11.80;7.40;;;5.60;76.00;;;;;;9181473;19;20470;-64
2023/03/07 00:50:19;;;;;;;12.32;6.88;;;5.60;76.10;;;;;;9183330;19;20806;-64
2023/03/07 00:53:25;;;;;;;8.98;5.95;;;5.60;76.10;;;;;;9181875;19;20018;-64
2023/03/07 00:56:31;;;;;;;17.63;6.45;;;5.60;76.10;;;;;;9184528;19;20381;-64
2023/03/07 00:59:37;;;;;;;13.75;5.60;;;5.60;76.20;;;;;;9183294;19;20014;-64
2023/03/07 01:02:41;;;;;;;;;;;5.60;76.20;;;;;;9185021;19;20041;-64
2023/03/07 01:05:47;;;;;;;13.25;5.95;;;5.70;76.20;;;;;;9182975;19;19929;-65
2023/03/07 01:08:51;;;;;;;9.48;3.85;;;5.70;76.00;;;;;;9178052;19;20040;-64
2023/03/07 01:11:59;;;;;;;6.00;3.67;;;5.70;76.10;;;;;;9181060;19;20019;-64
2023/03/07 01:15:05;;;;;;;7.28;3.45;;;5.70;76.20;;;;;;9180748;19;20082;-64
2023/03/07 01:18:12;;;;;;;8.93;3.10;;;5.70;76.20;;;;;;9174838;19;20006;-64
2023/03/07 01:21:18;;;;;;;4.55;3.05;;;5.70;76.20;;;;;;9180628;19;20033;-64
2023/03/07 01:24:24;;;;;;;10.07;4.00;;;5.70;76.30;;;;;;9182358;19;20014;-63
2023/03/07 01:27:30;;;;;;;6.30;3.63;;;5.70;76.30;;;;;;9180400;19;20447;-64
2023/03/07 01:30:37;;;;;;;8.48;4.40;;;5.70;76.30;;;;;;9182123;19;20508;-64
2023/03/07 01:33:42;;;;;;;7.18;4.60;;;5.80;77.00;;;;;;9180078;19;20041;-64
2023/03/07 01:36:48;;;;;;;9.30;5.55;;;5.80;76.40;;;;;;9179298;19;20467;-64
2023/03/07 01:39:53;;;;;;;11.65;5.18;;;5.80;76.40;;;;;;9179548;19;20038;-64
2023/03/07 01:43:24;;;;;;;9.45;4.85;;;5.80;76.40;;;;;;9179814;19;20114;-64
2023/03/07 01:46:51;;;;;;;7.22;5.28;;;5.80;76.60;;;;;;9180000;19;20014;-65
2023/03/07 01:50:00;;;;;;;11.05;5.50;;;5.80;76.50;;;;;;9178898;19;20015;-65
2023/03/07 01:53:07;;;;;;;13.20;5.20;;;5.80;76.40;;;;;;9179324;19;20121;-65
2023/03/07 01:56:13;;;;;;;9.07;5.40;;;5.80;77.10;;;;;;9179597;19;20030;-65
2023/03/07 01:59:26;;;;;;;11.07;4.78;;;5.80;76.50;;;;;;9180700;19;20015;-65
2023/03/07 02:02:33;;;;;;;10.65;4.82;;;5.80;76.60;;;;;;9180208;19;20018;-64
2023/03/07 02:05:40;;;;;;;5.22;1.80;;;5.80;76.60;;;;;;9181183;19;20417;-64
2023/03/07 02:08:49;;;;;;;5.20;1.25;;;5.80;76.60;;;;;;9177276;19;20070;-66
2023/03/07 02:11:55;;;;;;;4.40;1.98;;;5.80;76.50;;;;;;9180731;19;20049;-64
2023/03/07 02:15:04;;;;;;;3.08;1.10;;;5.70;76.40;;;;;;9178667;19;20024;-64
2023/03/07 02:18:09;;;;;;;2.70;1.23;;;5.70;76.40;;;;;;9172719;19;20018;-65
2023/03/07 02:21:24;;;;;;;4.18;1.23;;;5.60;76.30;;;;;;9179192;19;20018;-64
2023/03/07 02:24:33;;;;;;;2.25;1.00;;;5.60;76.30;;;;;;9177895;19;20024;-64
2023/03/07 02:27:43;;;;;;;5.13;1.00;;;5.50;76.30;;;;;;9178842;19;20455;-64
2023/03/07 02:30:55;;;;;;;3.28;0.70;;;5.50;77.00;;;;;;9179775;19;20090;-64
2023/03/07 02:34:03;;;;;;;1.17;0.70;;;5.40;76.40;;;;;;9174840;19;20021;-65
2023/03/07 02:37:11;;;;;;;6.28;0.70;;;5.40;76.40;;;;;;9180296;19;20037;-65
2023/03/07 02:40:21;;;;;;;2.60;0.73;;;5.30;76.30;;;;;;9178090;19;20019;-64
2023/03/07 02:43:27;;;;;;;1.42;0.65;;;5.30;76.40;;;;;;9177932;19;20018;-65
2023/03/07 02:46:33;;;;;;;2.83;0.90;;;5.30;76.40;;;;;;9177683;19;20010;-66
2023/03/07 02:49:37;;;;;;;3.03;0.90;;;5.30;76.50;;;;;;9174448;19;20006;-65
2023/03/07 02:52:43;;;;;;;2.40;0.93;;;5.20;76.50;;;;;;9178012;19;20025;-65
2023/03/07 02:55:47;;;;;;;4.60;1.20;;;5.20;76.50;;;;;;9177707;19;20010;-65
2023/03/07 02:58:55;;;;;;;2.75;1.10;;;5.10;76.50;;;;;;9178521;19;20021;-65
2023/03/07 03:01:59;;;;;;;3.88;0.75;;;5.10;76.50;;;;;;9178928;19;20779;-64
2023/03/07 03:05:07;;;;;;;1.55;0.77;;;5.10;76.60;;;;;;9178834;19;20506;-65
2023/03/07 03:08:12;;;;;;;5.72;1.20;;;5.10;76.60;;;;;;9177010;19;20022;-64
2023/03/07 03:11:19;;;;;;;2.08;1.17;;;5.00;76.50;;;;;;9176563;19;20012;-65
2023/03/07 03:14:25;;;;;;;7.38;1.30;;;5.00;76.60;;;;;;9176323;19;20010;-65
2023/03/07 03:17:31;;;;;;;2.55;1.10;;;5.00;76.60;;;;;;9171268;19;20632;-65
2023/03/07 03:20:35;;;;;;;;;;;5.00;76.70;;;;;;9179023;19;20010;-65
2023/03/07 03:23:41;;;;;;;3.63;1.05;;;5.00;76.70;;;;;;9178197;19;19931;-65
2023/03/07 03:26:46;;;;;;;8.80;1.63;;;5.00;76.50;;;;;;9176122;19;20015;-65
2023/03/07 03:29:56;;;;;;;4.40;1.48;;;5.00;76.60;;;;;;9171316;19;20019;-65
2023/03/07 03:33:01;;;;;;;6.47;1.80;;;5.00;76.70;;;;;;9175851;19;20591;-65
2023/03/07 03:36:09;;;;;;;5.72;1.85;;;5.00;76.80;;;;;;9175795;19;20014;-65
2023/03/07 03:39:14;;;;;;;4.32;1.77;;;5.00;76.80;;;;;;9176305;19;20035;-66
2023/03/07 03:42:24;;;;;;;5.72;1.92;;;5.00;76.80;;;;;;9175897;19;20336;-65
2023/03/07 03:45:30;;;;;;;4.50;1.85;;;5.00;76.90;;;;;;9175591;19;20396;-65
2023/03/07 03:48:36;;;;;;;6.88;1.90;;;5.00;76.90;;;;;;9174756;19;20021;-65
2023/03/07 03:51:41;;;;;;;5.70;1.90;;;5.00;76.90;;;;;;9175749;19;20006;-65
2023/03/07 03:54:47;;;;;;;8.50;2.30;;;5.00;77.00;;;;;;9175407;19;20494;-65
2023/03/07 03:57:51;;;;;;;5.47;1.88;;;5.00;77.00;;;;;;9176569;19;20015;-65
2023/03/07 04:00:59;;;;;;;13.23;2.78;;;5.00;77.00;;;;;;9175050;19;20011;-65
2023/03/07 04:04:03;;;;;;;9.20;2.35;;;5.00;77.10;;;;;;9174517;19;20117;-65
2023/03/07 04:07:09;;;;;;;6.35;2.08;;;5.00;77.10;;;;;;9176077;19;20492;-64
2023/03/07 04:10:13;;;;;;;7.68;2.13;;;5.00;77.10;;;;;;9178724;19;20340;-64
2023/03/07 04:13:19;;;;;;;12.32;2.08;;;5.00;77.10;;;;;;9184308;19;20022;-65
2023/03/07 04:16:26;;;;;;;5.05;1.50;;;5.10;77.20;;;;;;9182374;19;20018;-65
2023/03/07 04:19:32;;;;;;;16.00;1.88;;;5.00;77.10;;;;;;9183035;19;20025;-64
2023/03/07 04:22:36;;;;;;;12.70;2.03;;;5.00;77.10;;;;;;9184228;19;20021;-65
2023/03/07 04:25:47;;;;;;;6.00;1.92;;;5.10;77.20;;;;;;9182965;19;20018;-65
2023/03/07 04:28:52;;;;;;;5.25;1.40;;;5.10;77.20;;;;;;9183170;19;20486;-64
2023/03/07 04:32:07;;;;;;;;;;;5.10;77.20;;;;;;9186427;19;20546;-64
2023/03/07 04:35:11;;;;;;;3.92;1.77;;;5.10;77.20;;;;;;9182957;19;19923;-64
2023/03/07 04:38:17;;;;;;;10.10;1.60;;;5.10;77.00;;;;;;9183648;19;20015;-65
2023/03/07 04:41:25;;;;;;;8.55;2.17;;;5.10;77.10;;;;;;9182101;19;20011;-65
2023/03/07 04:44:41;;;;;;;3.72;1.38;;;5.10;77.20;;;;;;9181292;19;20458;-65
2023/03/07 04:47:47;;;;;;;6.47;1.73;;;5.10;77.20;;;;;;9180857;19;20023;-64
2023/03/07 04:50:53;;;;;;;5.53;1.13;;;5.10;77.20;;;;;;9181231;19;20018;-65
2023/03/07 04:53:58;;;;;;;9.95;1.63;;;5.10;77.20;;;;;;9181286;19;20662;-65
2023/03/07 04:57:04;;;;;;;12.77;1.55;;;5.10;77.20;;;;;;9182481;19;20003;-65
2023/03/07 05:00:10;;;;;;;7.88;1.70;;;5.10;77.20;;;;;;9181605;19;20007;-65
2023/03/07 05:03:32;;;;;;;5.10;1.67;;;5.10;77.20;;;;;;9181792;19;20043;-65
2023/03/07 05:06:36;;;;;;;5.82;1.27;;;5.10;77.20;;;;;;9182308;19;20015;-66
2023/03/07 05:09:42;;;;;;;5.63;1.48;;;5.10;77.20;;;;;;9178728;19;20022;-65
2023/03/07 05:12:49;;;;;;;12.88;1.92;;;5.10;77.20;;;;;;9181599;19;20034;-65
2023/03/07 05:15:56;;;;;;;8.90;1.48;;;5.10;77.20;;;;;;9182317;19;20007;-65
2023/03/07 05:19:03;;;;;;;7.00;1.42;;;5.10;77.20;;;;;;9175739;19;20419;-65
2023/03/07 05:22:12;;;;;;;8.77;1.15;;;5.10;77.20;;;;;;9175287;19;20360;-65
2023/03/07 05:25:16;;;;;;;6.88;1.20;;;5.10;77.20;;;;;;9180255;19;20359;-65
2023/03/07 05:28:21;;;;;;;3.13;0.90;;;5.10;77.20;;;;;;9179102;19;20486;-65
2023/03/07 05:31:25;;;;;;;;;;;5.10;77.20;;;;;;9182378;19;20471;-65
2023/03/07 05:34:33;;;;;;;6.35;1.08;;;5.10;77.20;;;;;;9182749;19;19922;-65
2023/03/07 05:37:37;;;;;;;5.57;1.23;;;5.10;77.00;;;;;;9179787;19;20014;-65
2023/03/07 05:40:44;;;;;;;4.50;1.15;;;5.10;77.10;;;;;;9179960;19;20026;-65
2023/03/07 05:43:50;;;;;;;6.22;1.20;;;5.10;77.10;;;;;;9179799;19;20017;-65
2023/03/07 05:46:56;;;;;;;10.18;1.88;;;5.10;77.20;;;;;;9180671;19;20014;-65
2023/03/07 05:50:02;;;;;;;10.73;1.83;;;5.10;77.20;;;;;;9178770;19;20025;-65
2023/03/07 05:53:09;;;;;;;7.80;1.30;;;5.10;77.20;;;;;;9181045;19;20380;-65
2023/03/07 05:56:12;;;;;;;;;;;5.10;77.20;;;;;;9179039;19;20025;-65
2023/03/07 05:59:19;;;;;;;16.55;1.48;;;5.10;77.10;;;;;;9179526;19;19922;-65
2023/03/07 06:02:25;;;;;;;11.60;1.40;;;5.00;76.90;;;;;;9178192;19;20484;-65
2023/03/07 06:05:34;;;;;;;5.55;1.10;;;5.10;77.10;;;;;;9179241;19;20050;-65
2023/03/07 06:08:38;;;;;;;3.35;0.77;;;5.00;77.00;;;;;;9180199;19;20045;-65
2023/03/07 06:11:44;;;;;;;5.43;1.38;;;5.00;77.00;;;;;;9178860;19;20014;-65
2023/03/07 06:14:48;;;;;;;8.18;1.45;;;5.00;77.00;;;;;;9180157;19;20018;-65
2023/03/07 06:17:55;;;;;;;6.82;1.48;;;5.00;77.00;;;;;;9173414;19;20019;-65
2023/03/07 06:21:02;;;;;;;8.15;0.82;;;5.00;77.00;;;;;;9178421;19;20014;-65
2023/03/07 06:24:11;;;;;;;12.82;1.42;;;5.00;77.00;;;;;;9178384;19;20025;-65
2023/03/07 06:27:16;;;;;;;4.25;1.00;;;5.00;77.00;;;;;;9178278;19;20014;-65
2023/03/07 06:30:22;;;;;;;6.13;1.30;;;5.00;77.00;;;;;;9176599;19;20021;-64
2023/03/07 06:33:26;;;;;;;4.88;0.90;;;5.00;77.00;;;;;;9179808;19;20460;-64
2023/03/07 06:36:36;;;;;;;3.35;0.88;;;5.00;77.00;;;;;;9179698;19;20649;-64
2023/03/07 06:39:40;;;;;;;5.43;0.85;;;4.90;76.90;;;;;;9178037;19;20114;-65
2023/03/07 06:42:46;;;;;;;2.80;1.15;;;4.90;76.90;;;;;;9179709;19;20018;-65
2023/03/07 06:45:51;;;;;;;5.93;1.33;;;4.90;76.90;;;;;;9177340;19;20015;-65
2023/03/07 06:48:58;;;;;;;5.68;0.90;;;4.90;76.90;;;;;;9175670;19;20022;-65
2023/03/07 06:52:04;;;;;;;4.22;1.02;;;4.90;76.90;;;;;;9177991;19;20035;-65
2023/03/07 06:55:11;;;;;;;6.32;1.00;;;4.90;76.90;;;;;;9177313;19;20558;-65
2023/03/07 06:58:16;;;;;;;5.43;0.70;;;4.90;76.90;;;;;;9175541;19;20428;-65
2023/03/07 07:01:23;;;;;;;8.55;1.25;;;4.80;76.90;;;;;;9176879;19;20029;-65
2023/03/07 07:04:30;;;;;;;4.18;0.75;;;4.80;76.90;;;;;;9176964;19;20515;-65
2023/03/07 07:07:38;;;;;;;9.00;1.75;;;4.80;76.90;;;;;;9177265;19;20018;-65
2023/03/07 07:11:02;;;;;;;7.07;0.90;;;4.80;76.90;;;;;;9176384;19;20014;-65
2023/03/07 07:14:09;;;;;;;5.38;1.10;;;4.80;76.90;;;;;;9174516;19;20010;-65
2023/03/07 07:17:14;;;;;;;7.65;1.30;;;4.70;76.80;;;;;;9173024;19;20129;-65
2023/03/07 07:20:21;;;;;;;3.60;1.17;;;4.70;76.90;;;;;;9170124;19;20014;-65
2023/03/07 07:23:27;;;;;;;3.25;0.98;;;4.70;77.00;;;;;;9171454;19;20029;-65
2023/03/07 07:26:34;;;;;;;9.48;1.17;;;4.70;77.00;;;;;;9175008;19;20014;-63
2023/03/07 07:29:38;;;;;;;4.45;1.33;;;4.70;77.00;;;;;;9174253;19;20085;-64
2023/03/07 07:32:45;;;;;;;2.88;0.82;;;4.70;77.00;;;;;;9175894;19;20010;-64
2023/03/07 07:35:49;;;;;;;5.25;1.02;;;4.70;77.10;;;;;;9176698;19;20463;-65
2023/03/07 07:38:58;;;;;;;5.35;0.93;;;4.70;77.10;;;;;;9175263;19;20025;-65
2023/03/07 07:42:02;;;;;;;3.38;1.10;;;4.70;77.10;;;;;;9174955;19;20033;-64
2023/03/07 07:45:15;;;;;;;4.65;1.13;;;4.70;77.20;;;;;;9172964;19;20014;-64
2023/03/07 07:48:19;;;;;;;5.93;1.30;;;4.70;77.20;;;;;;9173562;19;20078;-64
2023/03/07 07:51:26;;;;;;;7.95;1.33;;;4.60;77.10;;;;;;9171538;19;20089;-65
2023/03/07 07:54:32;;;;;;;4.30;1.88;;;4.60;77.20;;;;;;9176123;19;20017;-65
2023/03/07 07:57:38;;;;;;;12.88;1.17;;;4.60;77.20;;;;;;9175446;19;20010;-64
2023/03/07 08:00:42;;;;;;;3.33;0.90;;;4.60;77.20;;;;;;9167779;19;20419;-63
2023/03/07 08:03:48;;;;;;;5.15;1.88;;;4.60;77.30;;;;;;9171096;19;20475;-64
2023/03/07 08:06:53;;;;;;;7.43;1.10;;;4.60;77.30;;;;;;9169185;19;20015;-63
2023/03/07 08:10:01;;;;;;;10.20;1.13;;;4.60;77.30;;;;;;9165629;19;20010;-64
2023/03/07 08:13:06;;;;;;;5.40;1.20;;;4.60;77.30;;;;;;9175836;19;20014;-64
2023/03/07 08:16:13;;;;;;;3.90;1.00;;;4.60;77.40;;;;;;9171701;19;20551;-64
2023/03/07 08:19:17;;;;;;;3.38;0.88;;;4.60;77.40;;;;;;9168845;19;20017;-64
2023/03/07 08:22:23;;;;;;;6.07;0.95;;;4.70;77.50;;;;;;9174635;19;20030;-64
2023/03/07 08:25:29;;;;;;;5.55;1.08;;;4.60;77.40;;;;;;9174467;19;20070;-64
2023/03/07 08:28:36;;;;;;;2.47;1.10;;;4.70;77.50;;;;;;9174316;19;20034;-63
2023/03/07 08:31:40;;;;;;;5.75;1.05;;;4.70;77.50;;;;;;9174494;19;20018;-64
2023/03/07 08:34:46;;;;;;;1.52;0.80;;;4.70;77.60;;;;;;9175710;19;20129;-64
2023/03/07 08:37:54;;;;;;;3.88;1.17;;;4.70;77.60;;;;;;9174891;19;20014;-64
2023/03/07 08:41:07;;;;;;;5.57;1.05;;;4.70;77.60;;;;;;9175073;19;20053;-65
2023/03/07 08:44:11;;;;;;;1.35;0.98;;;4.70;77.60;;;;;;9173536;19;20043;-64
2023/03/07 08:47:17;;;;;;;2.55;0.88;;;4.70;77.60;;;;;;9173902;19;20006;-64
2023/03/07 08:50:21;;;;;;;6.85;1.15;;;4.70;77.70;;;;;;9171714;19;20019;-64
2023/03/07 08:53:27;;;;;;;6.72;0.95;;;4.70;77.70;;;;;;9172911;19;20360;-64
2023/03/07 08:56:34;;;;;;;5.88;1.02;;;4.80;77.80;;;;;;9179062;19;20038;-64
2023/03/07 08:59:40;;;;;;;4.55;1.20;;;4.80;77.70;;;;;;9178324;19;20018;-65
2023/03/07 09:02:44;;;;;;;4.38;0.95;;;4.80;77.70;;;;;;9176311;19;20021;-63
2023/03/07 09:05:50;;;;;;;2.72;1.00;;;4.80;77.70;;;;;;9175212;19;20014;-62
2023/03/07 09:08:54;;;;;;;5.88;1.25;;;4.80;77.70;;;;;;9172383;19;20021;-62
2023/03/07 09:12:02;;;;;;;1.75;0.82;;;4.80;77.70;;;;;;9175629;19;20017;-62
2023/03/07 09:15:07;;;;;;;3.75;0.90;;;4.90;77.80;;;;;;9176299;19;20037;-61
2023/03/07 09:18:14;;;;;;;3.28;0.90;;;4.90;77.80;;;;;;9172283;19;20007;-63
2023/03/07 09:21:18;;;;;;;6.47;1.27;;;4.90;77.80;;;;;;9171287;19;20052;-61
2023/03/07 09:24:24;;;;;;;4.80;1.00;;;5.00;77.90;;;;;;9176577;19;20042;-61
2023/03/07 09:27:29;;;;;;;1.17;0.73;;;5.00;77.80;;;;;;9174258;19;20014;-62
2023/03/07 09:30:35;;;;;;;8.38;1.20;;;5.00;77.90;;;;;;9171143;19;20014;-61
2023/03/07 09:33:39;;;;;;;;;;;5.10;78.00;;;;;;9172692;19;20505;-61
2023/03/07 09:36:45;;;;;;;3.33;1.00;;;5.10;77.90;;;;;;9173430;19;19931;-61
2023/03/07 09:39:50;;;;;;;6.93;1.27;;;5.10;77.70;;;;;;9180762;19;20026;-63
2023/03/07 09:43:06;;;;;;;7.70;1.30;;;5.10;77.80;;;;;;9181360;19;20018;-62
2023/03/07 09:46:21;;;;;;;4.40;1.33;;;5.10;77.80;;;;;;9178419;19;20019;-62
2023/03/07 09:49:38;;;;;;;5.20;1.38;;;5.20;77.80;;;;;;9177425;19;20014;-62
2023/03/07 09:52:43;;;;;;;10.13;1.13;;;5.20;78.50;;;;;;9181020;19;20150;-62
2023/03/07 09:55:51;;;;;;;7.40;1.17;;;5.20;77.80;;;;;;9169433;19;20019;-62
2023/03/07 09:59:02;;;;;;;6.20;1.60;;;5.30;77.80;;;;;;9176654;19;20047;-62
2023/03/07 10:02:23;;;;;;;5.47;0.87;;;5.30;77.80;;;;;;9174161;19;20021;-63
2023/03/07 10:05:32;;;;;;;9.82;1.73;;;5.30;77.80;;;;;;9178116;19;20082;-62
2023/03/07 10:08:38;;;;;;;7.85;1.20;;;5.30;77.80;;;;;;9177157;19;20445;-61
2023/03/07 10:12:13;;;;;;;10.18;1.27;;;5.40;77.90;;;;;;9179465;19;20015;-62
2023/03/07 10:15:35;;;;;;;2.80;0.93;;;5.40;77.90;;;;;;9178549;19;20015;-62
2023/03/07 10:18:53;;;;;;;8.30;1.60;;;5.50;77.90;;;;;;9173784;19;20490;-62
2023/03/07 10:22:10;;;;;;;6.35;1.17;;;5.50;77.90;;;;;;9180160;19;20026;-62
2023/03/07 10:25:24;;;;;;;7.22;1.63;;;5.50;77.90;;;;;;9178873;19;20015;-62
2023/03/07 10:28:36;;;;;;;9.70;1.98;;;5.50;77.80;;;;;;9176202;19;20436;-62
2023/03/07 10:31:46;;;;;;;3.78;0.98;;;5.60;77.90;;;;;;9179437;19;20045;-63
2023/03/07 10:35:00;;;;;;;5.10;1.90;;;5.60;77.90;;;;;;9179662;19;20026;-62
2023/03/07 10:38:14;;;;;;;4.78;1.20;;;5.60;77.90;;;;;;9177153;19;20010;-62
2023/03/07 10:41:22;;;;;;;4.32;1.10;;;5.70;77.90;;;;;;9177256;19;20014;-62
2023/03/07 10:44:31;;;;;;;7.90;1.52;;;5.70;77.80;;;;;;9178357;19;20015;-62
2023/03/07 10:47:39;;;;;;;8.68;1.30;;;5.70;77.80;;;;;;9176687;19;20364;-62
2023/03/07 10:50:49;;;;;;;8.15;1.52;;;5.70;77.80;;;;;;9174329;19;20025;-62
2023/03/07 10:53:57;;;;;;;5.45;1.05;;;5.80;77.80;;;;;;9177709;19;20014;-62
2023/03/07 10:57:11;;;;;;;11.77;1.15;;;5.80;77.80;;;;;;9178470;19;20082;-63
2023/03/07 11:00:20;;;;;;;9.63;1.27;;;5.80;77.80;;;;;;9174297;19;20018;-63
2023/03/07 11:03:33;;;;;;;8.73;2.22;;;5.80;77.80;;;;;;9176735;19;20019;-63
2023/03/07 11:06:58;;;;;;;13.07;1.30;;;5.80;77.80;;;;;;9178347;19;20018;-63
2023/03/07 11:10:23;;;;;;;8.55;1.17;;;5.90;77.80;;;;;;9176868;19;20378;-62
2023/03/07 11:13:30;;;;;;;2.58;1.10;;;5.90;77.80;;;;;;9178777;19;20019;-62
2023/03/07 11:16:34;;;;;;;5.20;1.20;;;6.00;77.80;;;;;;9168724;19;20041;-63
2023/03/07 11:19:44;;;;;;;4.63;1.60;;;6.00;77.90;;;;;;9174522;19;20018;-62
2023/03/07 11:22:48;;;;;;;5.10;1.23;;;6.00;77.90;;;;;;9178058;19;20101;-60
2023/03/07 11:25:56;;;;;;;9.48;1.30;;;6.10;77.90;;;;;;9176177;19;20016;-60
2023/03/07 11:29:09;;;;;;;4.45;1.40;;;6.20;78.00;;;;;;9165943;19;20742;-60
2023/03/07 11:32:22;;;;;;;7.05;1.60;;;6.20;78.00;;;;;;9171445;19;20018;-60
2023/03/07 11:35:42;;;;;;;7.25;2.40;;;6.20;77.80;;;;;;9171049;19;20032;-60
2023/03/07 11:39:00;;;;;;;16.65;2.90;;;6.30;77.80;;;;;;9168194;19;20014;-60
2023/03/07 11:42:14;;;;;;;5.25;1.10;;;6.30;77.80;;;;;;9171304;19;20010;-59
2023/03/07 11:45:33;;;;;;;3.22;0.98;;;6.40;77.70;;;;;;9169195;19;20625;-59
2023/03/07 11:48:49;;;;;;;7.15;1.85;;;6.40;77.70;;;;;;9168500;19;20019;-60
2023/03/07 11:52:09;;;;;;;3.83;1.02;;;6.40;77.60;;;;;;9176564;19;20022;-60
2023/03/07 11:55:25;;;;;;;5.13;1.30;;;6.40;77.50;;;;;;9173286;19;20371;-60
2023/03/07 11:58:50;;;;;;;6.10;1.15;;;6.40;77.40;;;;;;9160374;19;20086;-60
2023/03/07 12:01:57;;;;;;;3.55;1.70;;;6.30;77.40;;;;;;9176782;19;20019;-59
2023/03/07 12:05:15;;;;;;;4.63;1.50;;;6.30;77.30;;;;;;9176614;19;20011;-60
2023/03/07 12:08:47;;;;;;;11.55;2.45;;;6.30;77.30;;;;;;9173900;19;20015;-60
2023/03/07 12:12:23;;;;;;;4.30;1.20;;;6.20;77.40;;;;;;9176204;19;20017;-60
2023/03/07 12:15:36;;;;;;;2.22;0.88;;;6.20;77.40;;;;;;9175440;19;20078;-60
2023/03/07 12:18:57;;;;;;;7.03;1.10;;;6.20;77.40;;;;;;9174952;19;20018;-60
2023/03/07 12:22:18;;;;;;;1.85;0.90;;;6.10;77.50;;;;;;9172984;19;20070;-60
2023/03/07 12:25:31;;;;;;;8.25;1.00;;;6.10;77.60;;;;;;9174096;19;20014;-60
2023/03/07 12:28:45;;;;;;;2.50;1.45;;;6.10;77.60;;;;;;9165324;19;20019;-61
2023/03/07 12:31:55;;;;;;;7.57;1.25;;;6.10;77.70;;;;;;9171637;19;20014;-60
2023/03/07 12:35:04;;;;;;;6.88;2.50;;;6.10;77.70;;;;;;9176246;19;20025;-61
2023/03/07 12:38:17;;;;;;;3.38;1.40;;;6.10;77.80;;;;;;9176718;19;20022;-60
2023/03/07 12:41:31;;;;;;;3.95;1.17;;;6.10;77.70;;;;;;9179226;19;20029;-61
2023/03/07 12:44:41;;;;;;;3.70;1.40;;;6.10;77.80;;;;;;9182981;19;20471;-60
2023/03/07 12:47:56;;;;;;;6.90;1.40;;;6.10;77.90;;;;;;9181635;19;20007;-60
2023/03/07 12:51:09;;;;;;;2.92;0.95;;;6.10;77.90;;;;;;9178984;19;20364;-61
2023/03/07 12:54:18;;;;;;;8.35;1.23;;;6.20;78.00;;;;;;9180880;19;20014;-62
2023/03/07 12:57:31;;;;;;;5.28;1.60;;;6.20;78.00;;;;;;9178015;19;20030;-60
2023/03/07 13:00:40;;;;;;;7.03;1.02;;;6.30;78.00;;;;;;9175028;19;20048;-60
2023/03/07 13:03:53;;;;;;;3.10;0.90;;;6.30;78.00;;;;;;9180070;19;20041;-60
2023/03/07 13:07:02;;;;;;;4.10;1.38;;;6.30;77.90;;;;;;9176743;19;20284;-61
2023/03/07 13:10:13;;;;;;;1.90;1.02;;;6.40;78.00;;;;;;9179071;19;20017;-60
2023/03/07 13:13:54;;;;;;;5.95;1.00;;;6.40;77.80;;;;;;9178844;19;20399;-60
2023/03/07 13:17:00;;;;;;;3.47;1.30;;;6.50;77.80;;;;;;9178668;19;20018;-60
2023/03/07 13:20:05;;;;;;;4.10;1.23;;;6.50;77.60;;;;;;9181604;19;20037;-60
2023/03/07 13:23:26;;;;;;;2.40;0.82;;;6.50;77.60;;;;;;9179301;19;20025;-60
2023/03/07 13:26:30;;;;;;;7.88;1.60;;;6.50;77.50;;;;;;9179091;19;20472;-61
2023/03/07 13:30:16;;;;;;;5.82;1.30;;;6.50;77.50;;;;;;9179864;19;20011;-60
2023/03/07 13:33:27;;;;;;;2.95;0.90;;;6.60;77.50;;;;;;9180866;19;20367;-60
2023/03/07 13:36:36;;;;;;;3.80;2.38;;;6.60;77.40;;;;;;9181414;19;20018;-60
2023/03/07 13:40:01;;;;;;;1.70;0.88;;;6.60;77.40;;;;;;9180987;19;20034;-60
2023/03/07 13:43:45;;;;;;;2.70;0.70;;;6.60;77.40;;;;;;9178644;19;20011;-61
2023/03/07 13:46:54;;;;;;;7.03;1.00;;;6.70;77.40;;;;;;9178763;19;20370;-60
2023/03/07 13:50:00;;;;;;;4.03;0.93;;;6.70;77.40;;;;;;9178188;19;20463;-59
2023/03/07 13:53:05;;;;;;;;;;;6.70;77.30;;;;;;9182298;19;20007;-61
2023/03/07 13:56:24;;;;;;;2.50;0.80;;;6.70;77.20;;;;;;9181030;19;19934;-61
2023/03/07 13:59:27;;;;;;;2.38;0.57;;;6.70;77.70;;;;;;9174415;19;20014;-60
2023/03/07 14:02:38;;;;;;;3.00;0.70;;;6.70;77.10;;;;;;9178245;19;20013;-61
2023/03/07 14:05:42;;;;;;;1.70;0.73;;;6.70;77.00;;;;;;9175277;19;20090;-60
2023/03/07 14:08:50;;;;;;;1.70;0.57;;;6.70;76.90;;;;;;9168846;19;20017;-60
2023/03/07 14:12:08;;;;;;;1.23;0.90;;;6.80;76.90;;;;;;9173893;19;20026;-59
2023/03/07 14:15:27;;;;;;;2.67;0.77;;;6.70;76.80;;;;;;9175835;19;20018;-60
2023/03/07 14:18:48;;;;;;;3.75;0.85;;;6.70;76.70;;;;;;9176848;19;20464;-60
2023/03/07 14:21:59;;;;;;;4.30;0.68;;;6.70;76.60;;;;;;9177544;19;20018;-61
2023/03/07 14:25:16;;;;;;;4.30;0.85;;;6.70;76.60;;;;;;9181562;19;20015;-60
2023/03/07 14:28:25;;;;;;;2.20;0.70;;;6.70;76.50;;;;;;9179508;19;20025;-60
2023/03/07 14:31:31;;;;;;;1.85;0.70;;;6.70;76.50;;;;;;9175851;19;20491;-61
2023/03/07 14:34:48;;;;;;;6.00;0.93;;;6.70;76.50;;;;;;9179957;19;20389;-61
2023/03/07 14:37:51;;;;;;;4.65;0.90;;;6.70;76.40;;;;;;9179262;19;20015;-61
2023/03/07 14:41:20;;;;;;;3.30;0.90;;;6.70;76.40;;;;;;9177822;19;20018;-61
2023/03/07 14:44:53;;;;;;;3.88;1.17;;;6.70;76.30;;;;;;9178203;19;20352;-60
2023/03/07 14:48:20;;;;;;;6.00;1.27;;;6.60;76.20;;;;;;9179528;19;20019;-61
2023/03/07 14:51:29;;;;;;;5.45;1.13;;;6.60;76.30;;;;;;9175121;19;20017;-61
2023/03/07 14:54:38;;;;;;;2.25;0.40;;;6.60;76.30;;;;;;9178360;19;20011;-60
2023/03/07 14:57:48;;;;;;;0.57;0.52;;;6.50;76.20;;;;;;9177759;19;20039;-60
2023/03/07 15:01:01;;;;;;;1.35;0.82;;;6.50;76.20;;;;;;9174773;19;20019;-61
2023/03/07 15:04:21;;;;;;;1.40;0.65;;;6.40;76.10;;;;;;9174890;19;20106;-60
2023/03/07 15:07:29;;;;;;;3.50;1.75;;;6.30;76.10;;;;;;9175194;19;20030;-59
2023/03/07 15:10:40;;;;;;;1.20;0.60;;;6.20;76.10;;;;;;9175071;19;20341;-59
2023/03/07 15:13:49;;;;;;;0.82;0.63;;;6.10;76.10;;;;;;9177152;19;20006;-59
2023/03/07 15:16:57;;;;;;;0.95;0.68;;;6.00;76.00;;;;;;9173930;19;20046;-60
2023/03/07 15:20:07;;;;;;;1.70;0.95;;;5.90;76.00;;;;;;9172368;19;20022;-59
2023/03/07 15:23:22;;;;;;;1.23;0.88;;;5.80;76.10;;;;;;9167219;19;20106;-59
2023/03/07 15:26:30;;;;;;;2.38;0.75;;;5.80;76.20;;;;;;9170250;19;20019;-59
2023/03/07 15:29:35;;;;;;;0.85;0.63;;;5.70;76.20;;;;;;9167516;19;20014;-62
2023/03/07 15:32:41;;;;;;;1.95;0.50;;;5.60;76.20;;;;;;9166995;19;20459;-59
2023/03/07 15:35:48;;;;;;;6.50;1.05;;;5.60;76.90;;;;;;9168323;19;20014;-60
2023/03/07 15:39:24;;;;;;;2.60;0.75;;;5.50;76.40;;;;;;9166423;19;20017;-59
2023/03/07 15:42:30;;;;;;;1.80;0.90;;;5.50;76.40;;;;;;9167970;19;20014;-60
2023/03/07 15:45:38;;;;;;;5.30;0.90;;;5.40;76.40;;;;;;9166471;19;20014;-59
2023/03/07 15:48:49;;;;;;;2.78;0.93;;;5.30;76.30;;;;;;9167886;19;20484;-59
2023/03/07 15:51:58;;;;;;;5.40;0.80;;;5.30;76.40;;;;;;9162119;19;20022;-59
2023/03/07 15:55:06;;;;;;;5.15;0.90;;;5.20;76.40;;;;;;9168351;19;20490;-60
2023/03/07 15:58:15;;;;;;;1.40;0.70;;;5.20;76.60;;;;;;9164040;19;21400;-60
2023/03/07 16:01:22;;;;;;;7.10;2.80;;;5.10;76.50;;;;;;9169118;19;20015;-60
2023/03/07 16:04:41;;;;;;;6.13;1.20;;;5.10;76.50;;;;;;9170134;19;20014;-59
2023/03/07 16:07:48;;;;;;;3.08;0.98;;;5.10;76.60;;;;;;9176474;19;20018;-59
2023/03/07 16:10:59;;;;;;;8.95;1.23;;;5.10;76.60;;;;;;9170725;19;20010;-60
2023/03/07 16:14:03;;;;;;;4.13;1.15;;;5.10;76.70;;;;;;9168221;19;20037;-59
2023/03/07 16:17:18;;;;;;;3.83;1.13;;;5.00;76.60;;;;;;9171319;19;20014;-60
2023/03/07 16:20:24;;;;;;;3.88;1.00;;;5.10;76.70;;;;;;9170003;19;20010;-59
2023/03/07 16:23:30;;;;;;;4.20;1.77;;;5.00;76.70;;;;;;9174724;19;20021;-62
2023/03/07 16:26:36;;;;;;;7.68;1.20;;;5.00;76.60;;;;;;9177296;19;20475;-62
2023/03/07 16:29:42;;;;;;;2.25;1.10;;;5.00;76.70;;;;;;9175072;19;20034;-63
2023/03/07 16:32:46;;;;;;;;;;;5.00;76.70;;;;;;9175410;19;20015;-63
2023/03/07 16:35:52;;;;;;;4.90;1.40;;;5.00;76.70;;;;;;9176121;19;19940;-63
2023/03/07 16:38:56;;;;;;;4.07;1.20;;;4.90;76.60;;;;;;9176288;19;20019;-63